Time;durP1;ratioP1;P1;durP2;ratioP2;P2;SDS_P1;SDS_P2;PMS_P1;PMS_P2;Temp;Humidity;BMP_temperature;BMP_pressure;BME280_temperature;BME280_humidity;BME280_pressure;Samples;Min_cycle;Max_cycle;Signal;HPM_P1;HPM_P2
2022/07/06 00:00:06;;;;;;;3.60;3.33;;;;;;;13.65;83.93;102109.88;5031613;28;20913;-49
2022/07/06 00:02:33;;;;;;;2.87;2.60;;;;;;;13.60;84.33;102098.91;5030686;28;20482;-47
2022/07/06 00:05:01;;;;;;;2.67;2.47;;;;;;;13.58;84.48;102098.25;5031758;28;20432;-50
2022/07/06 00:07:30;;;;;;;13.37;3.40;;;;;;;13.57;85.00;102101.09;5031754;28;20534;-47
2022/07/06 00:09:58;;;;;;;3.30;2.30;;;;;;;13.54;85.17;102098.78;5031671;28;20432;-45
2022/07/06 00:12:25;;;;;;;4.40;3.37;;;;;;;13.49;85.30;102094.00;5030659;28;20466;-46
2022/07/06 00:14:54;;;;;;;5.50;2.93;;;;;;;13.47;86.52;102095.19;5031589;28;20797;-46
2022/07/06 00:17:22;;;;;;;6.40;2.67;;;;;;;13.47;86.89;102097.88;5031705;28;20428;-50
2022/07/06 00:19:50;;;;;;;9.13;2.80;;;;;;;13.50;87.65;102095.63;5032118;28;20447;-47
2022/07/06 00:22:17;;;;;;;2.70;2.50;;;;;;;13.51;88.26;102099.16;5033583;28;20482;-48
2022/07/06 00:24:45;;;;;;;3.13;2.83;;;;;;;13.51;88.73;102097.31;5035261;28;20472;-50
2022/07/06 00:27:12;;;;;;;4.30;2.53;;;;;;;13.57;89.17;102099.25;5034752;28;20432;-52
2022/07/06 00:29:43;;;;;;;2.37;2.17;;;;;;;13.62;88.84;102094.19;5034773;28;20463;-48
2022/07/06 00:32:12;;;;;;;2.70;2.20;;;;;;;13.66;88.68;102098.16;5030183;28;20518;-48
2022/07/06 00:34:40;;;;;;;3.57;2.20;;;;;;;13.69;88.24;102105.84;5026832;28;20447;-50
2022/07/06 00:37:07;;;;;;;3.27;2.97;;;;;;;13.70;88.45;102102.16;5034415;28;20436;-47
2022/07/06 00:39:35;;;;;;;8.63;2.70;;;;;;;13.73;89.28;102104.47;5033004;28;20433;-47
2022/07/06 00:42:03;;;;;;;3.00;2.50;;;;;;;13.81;89.44;102095.50;5030638;28;20996;-48
2022/07/06 00:44:33;;;;;;;4.40;2.47;;;;;;;13.83;89.47;102096.13;5031388;28;20476;-43
2022/07/06 00:47:00;;;;;;;2.67;2.47;;;;;;;13.84;89.59;102095.13;5031410;28;20444;-44
2022/07/06 00:52:15;;;;;;;6.60;3.20;;;;;;;13.92;89.75;102094.22;5034512;28;20475;-45
2022/07/06 00:54:44;;;;;;;2.00;1.80;;;;;;;13.94;89.62;102100.22;5035150;28;20485;-44
2022/07/06 00:57:11;;;;;;;3.17;2.37;;;;;;;14.00;89.56;102102.97;5035186;28;20783;-48
2022/07/06 00:59:39;;;;;;;2.23;2.00;;;;;;;14.03;89.50;102104.47;5038691;28;20436;-47
2022/07/06 01:02:07;;;;;;;5.97;2.87;;;;;;;14.02;89.25;102092.91;5037757;28;20467;-48
2022/07/06 01:04:36;;;;;;;5.10;2.27;;;;;;;14.03;89.88;102099.09;5037564;28;20547;-49
2022/07/06 01:07:04;;;;;;;4.40;2.23;;;;;;;14.02;90.23;102095.56;5038105;28;20454;-48
2022/07/06 01:09:32;;;;;;;2.63;2.43;;;;;;;13.99;90.38;102097.78;5037851;28;20432;-48
2022/07/06 01:11:59;;;;;;;4.80;2.47;;;;;;;14.00;91.42;102094.09;5037572;28;20455;-46
2022/07/06 01:14:28;;;;;;;3.30;3.00;;;;;;;13.97;91.53;102092.63;5038343;28;20925;-47
2022/07/06 01:16:56;;;;;;;3.90;3.07;;;;;;;14.00;91.72;102099.47;5038344;28;20444;-53
2022/07/06 01:19:24;;;;;;;3.00;2.57;;;;;;;13.97;91.05;102098.00;5039226;28;20436;-50
2022/07/06 01:21:53;;;;;;;3.30;2.20;;;;;;;13.94;91.09;102093.00;5038906;28;20471;-47
2022/07/06 01:24:20;;;;;;;6.57;2.93;;;;;;;13.95;90.85;102091.16;5038619;28;20575;-50
2022/07/06 01:26:48;;;;;;;5.17;2.70;;;;;;;13.95;90.49;102086.59;5038949;28;20443;-50
2022/07/06 01:29:16;;;;;;;2.40;2.27;;;;;;;13.94;89.94;102094.84;5038930;28;20428;-47
2022/07/06 01:31:48;;;;;;;6.70;3.17;;;;;;;13.92;90.05;102081.59;5033430;28;20539;-48
2022/07/06 01:34:17;;;;;;;6.10;2.53;;;;;;;13.93;90.38;102080.59;5030186;28;20451;-47
2022/07/06 01:36:45;;;;;;;3.20;2.40;;;;;;;13.93;90.35;102087.81;5038116;28;20440;-53
2022/07/06 01:39:14;;;;;;;4.33;3.43;;;;;;;13.89;91.48;102084.66;5038260;28;20443;-50
2022/07/06 01:41:42;;;;;;;5.93;2.33;;;;;;;13.91;91.61;102085.31;5037442;28;20464;-49
2022/07/06 01:44:10;;;;;;;2.73;2.33;;;;;;;13.91;91.80;102085.31;5036984;28;20472;-47
2022/07/06 01:46:37;;;;;;;5.20;2.50;;;;;;;13.87;93.60;102084.03;5037504;28;20523;-50
2022/07/06 01:49:06;;;;;;;3.53;2.30;;;;;;;13.96;94.18;102087.44;5037604;28;20428;-51
2022/07/06 01:51:33;;;;;;;4.67;2.53;;;;;;;13.95;94.58;102086.59;5037861;28;20448;-53
2022/07/06 01:54:01;;;;;;;3.60;2.70;;;;;;;13.92;95.30;102078.94;5037322;28;20430;-51
2022/07/06 01:56:30;;;;;;;3.70;2.50;;;;;;;13.94;95.23;102081.44;5036791;28;20428;-48
2022/07/06 01:58:58;;;;;;;2.63;2.43;;;;;;;14.02;95.46;102081.31;5036004;28;20432;-46
2022/07/06 02:01:25;;;;;;;2.50;2.27;;;;;;;14.07;94.82;102081.59;5034768;28;20464;-47
2022/07/06 02:03:53;;;;;;;3.63;2.70;;;;;;;14.08;94.40;102068.00;5035046;28;20467;-48
2022/07/06 02:06:21;;;;;;;4.90;2.43;;;;;;;14.08;93.83;102072.53;5035469;28;20594;-48
2022/07/06 02:08:51;;;;;;;2.07;1.90;;;;;;;14.08;93.35;102077.91;5035654;28;20441;-47
2022/07/06 02:11:19;;;;;;;3.43;2.27;;;;;;;14.07;93.20;102073.53;5035597;28;20478;-51
2022/07/06 02:13:47;;;;;;;2.37;2.20;;;;;;;14.07;92.93;102073.53;5034965;28;20443;-46
2022/07/06 02:16:15;;;;;;;2.20;2.10;;;;;;;14.07;92.71;102069.00;5035272;28;20805;-47
2022/07/06 02:18:43;;;;;;;7.67;2.43;;;;;;;14.08;92.34;102069.84;5034829;28;20440;-48
2022/07/06 02:21:11;;;;;;;2.13;1.83;;;;;;;14.08;92.32;102075.22;5034880;28;20989;-47
2022/07/06 02:23:38;;;;;;;2.57;2.03;;;;;;;14.07;92.05;102079.75;5034049;28;20468;-46
2022/07/06 02:26:06;;;;;;;2.40;1.97;;;;;;;14.08;91.72;102080.59;5035654;28;20424;-48
2022/07/06 02:28:33;;;;;;;2.63;2.00;;;;;;;14.08;91.14;102078.72;5035478;28;20436;-48
2022/07/06 02:31:03;;;;;;;3.10;2.43;;;;;;;14.10;90.95;102074.00;5035335;28;20458;-46
2022/07/06 02:33:30;;;;;;;7.23;2.40;;;;;;;14.09;90.59;102075.03;5023126;28;20560;-47
2022/07/06 02:35:58;;;;;;;3.30;2.87;;;;;;;14.07;90.32;102073.53;5034009;28;20428;-48
2022/07/06 02:38:25;;;;;;;7.17;2.40;;;;;;;14.10;90.61;102068.63;5035389;28;20789;-51
2022/07/06 02:40:53;;;;;;;2.73;2.20;;;;;;;14.13;90.59;102076.31;5034804;28;20467;-50
2022/07/06 02:43:21;;;;;;;2.70;2.50;;;;;;;14.14;90.54;102069.09;5035007;28;20464;-47
2022/07/06 02:45:49;;;;;;;4.47;1.90;;;;;;;14.14;90.20;102064.56;5035362;28;20525;-48
2022/07/06 02:48:21;;;;;;;5.03;2.43;;;;;;;14.17;90.06;102063.38;5035237;28;20944;-48
2022/07/06 02:50:49;;;;;;;3.60;2.30;;;;;;;14.15;89.58;102065.41;5035649;28;20483;-48
2022/07/06 02:53:18;;;;;;;4.80;2.30;;;;;;;14.14;89.49;102061.88;5035258;28;21009;-51
2022/07/06 02:55:46;;;;;;;6.23;2.67;;;;;;;14.16;89.46;102067.88;5036104;28;20450;-50
2022/07/06 02:58:13;;;;;;;3.37;2.80;;;;;;;14.16;88.97;102070.56;5035616;28;20446;-47
2022/07/06 03:00:41;;;;;;;5.03;2.77;;;;;;;14.16;88.90;102067.88;5035169;28;20443;-51
2022/07/06 03:03:10;;;;;;;3.70;2.87;;;;;;;14.18;88.82;102067.72;5034641;28;20875;-49
2022/07/06 03:05:39;;;;;;;3.20;2.73;;;;;;;14.20;88.82;102071.03;5034908;28;20472;-48
2022/07/06 03:08:06;;;;;;;2.60;1.90;;;;;;;14.21;88.79;102068.19;5034832;28;20432;-47
2022/07/06 03:10:34;;;;;;;3.70;2.83;;;;;;;14.26;88.88;102075.66;5034308;28;20759;-51
2022/07/06 03:13:01;;;;;;;2.40;2.20;;;;;;;14.27;88.80;102071.97;5033484;28;20464;-48
2022/07/06 03:15:29;;;;;;;4.93;2.80;;;;;;;14.32;88.41;102086.50;5034503;28;20428;-49
2022/07/06 03:17:56;;;;;;;4.67;2.47;;;;;;;14.33;88.37;102080.13;5033932;28;20442;-48
2022/07/06 03:20:24;;;;;;;2.60;2.40;;;;;;;14.32;87.99;102081.13;5034171;28;20519;-45
2022/07/06 03:22:53;;;;;;;3.37;2.33;;;;;;;14.35;87.85;102090.66;5033280;28;20484;-49
2022/07/06 03:25:21;;;;;;;2.60;2.50;;;;;;;14.37;88.00;102089.44;5034256;28;20472;-48
2022/07/06 03:27:49;;;;;;;2.60;2.50;;;;;;;14.38;87.55;102087.59;5034361;28;20436;-48
2022/07/06 03:30:16;;;;;;;4.17;2.50;;;;;;;14.38;87.70;102088.44;5034120;28;20432;-47
2022/07/06 03:32:44;;;;;;;3.83;2.30;;;;;;;14.45;88.30;102085.81;5028995;28;20468;-47
2022/07/06 03:35:12;;;;;;;3.73;2.50;;;;;;;14.45;87.77;102087.69;5026591;28;20434;-50
2022/07/06 03:37:39;;;;;;;4.67;2.40;;;;;;;14.50;87.87;102091.44;5033999;28;20439;-50
2022/07/06 03:40:09;;;;;;;4.47;2.73;;;;;;;14.51;87.42;102086.91;5034036;28;20444;-48
2022/07/06 03:42:37;;;;;;;5.90;2.63;;;;;;;14.51;87.51;102086.91;5033616;28;20470;-48
2022/07/06 03:45:05;;;;;;;3.00;2.70;;;;;;;14.50;87.68;102091.44;5033549;28;20480;-49
2022/07/06 03:47:33;;;;;;;2.90;2.70;;;;;;;14.53;88.42;102088.38;5033885;28;20670;-45
2022/07/06 03:50:00;;;;;;;4.40;2.90;;;;;;;14.52;87.77;102092.09;5033622;28;20432;-47
2022/07/06 03:52:28;;;;;;;4.63;2.93;;;;;;;14.50;88.32;102091.44;5033004;28;20471;-50
2022/07/06 03:54:56;;;;;;;4.23;2.53;;;;;;;14.39;90.70;102105.38;5033984;28;20434;-47
2022/07/06 03:57:25;;;;;;;3.23;2.90;;;;;;;14.20;94.21;102108.59;5033898;28;20436;-47
2022/07/06 03:59:53;;;;;;;3.30;2.63;;;;;;;13.99;94.26;102119.25;5035497;28;20806;-47
2022/07/06 04:02:20;;;;;;;6.40;3.30;;;;;;;13.84;97.36;102130.81;5034262;28;20479;-51
2022/07/06 04:04:48;;;;;;;6.03;3.30;;;;;;;13.55;98.32;102133.47;5035188;28;20468;-47
2022/07/06 04:07:16;;;;;;;3.33;3.07;;;;;;;13.26;99.41;102134.22;5032936;28;20442;-51
2022/07/06 04:09:43;;;;;;;3.53;3.10;;;;;;;13.03;99.96;102132.53;5032338;28;20435;-47
2022/07/06 04:12:11;;;;;;;5.43;3.80;;;;;;;12.99;99.94;102125.88;5031535;28;20467;-49
2022/07/06 04:14:44;;;;;;;7.43;3.40;;;;;;;12.85;100.00;102134.66;5031693;28;20519;-47
2022/07/06 04:19:57;;;;;;;5.67;3.17;;;;;;;12.63;99.57;102137.13;5031515;28;20428;-46
2022/07/06 04:22:25;;;;;;;5.03;3.77;;;;;;;12.64;98.51;102132.63;5030648;28;20464;-44
2022/07/06 04:24:52;;;;;;;4.97;3.10;;;;;;;12.57;98.50;102129.00;5035134;28;20862;-47
2022/07/06 04:27:20;;;;;;;3.23;3.00;;;;;;;12.53;99.72;102125.00;5035822;28;20436;-45
2022/07/06 04:29:49;;;;;;;3.50;2.70;;;;;;;12.55;100.00;102121.13;5035421;28;20432;-49
2022/07/06 04:32:17;;;;;;;6.20;3.60;;;;;;;12.61;100.00;102116.91;5030478;28;20825;-45
2022/07/06 04:34:51;;;;;;;2.70;2.50;;;;;;;12.70;100.00;102116.69;5027109;28;21003;-45
2022/07/06 04:37:19;;;;;;;2.90;2.70;;;;;;;12.79;100.00;102112.13;5035650;28;20439;-46
2022/07/06 04:39:47;;;;;;;3.20;2.90;;;;;;;12.85;100.00;102108.72;5035377;28;20432;-44
2022/07/06 04:42:15;;;;;;;5.83;2.90;;;;;;;12.94;100.00;102096.13;5034711;28;20471;-44
2022/07/06 04:44:43;;;;;;;4.40;2.57;;;;;;;13.01;100.00;102099.75;5035208;28;20439;-52
2022/07/06 04:47:12;;;;;;;3.53;2.40;;;;;;;13.16;100.00;102096.16;5060830;22;20486;-45
2022/07/06 04:49:40;;;;;;;2.60;2.40;;;;;;;13.26;100.00;102109.28;5035120;28;20538;-49
2022/07/06 04:52:08;;;;;;;2.83;2.47;;;;;;;13.37;100.00;102106.16;5034439;28;21000;-47
2022/07/06 04:54:36;;;;;;;4.37;2.70;;;;;;;13.50;100.00;102111.72;5035273;28;20454;-47
2022/07/06 04:57:04;;;;;;;4.80;3.23;;;;;;;13.70;100.00;102114.72;5035069;28;20474;-47
2022/07/06 04:59:39;;;;;;;2.70;2.60;;;;;;;13.81;99.45;102111.56;5035029;28;20860;-46
2022/07/06 05:02:06;;;;;;;3.73;2.50;;;;;;;13.95;98.40;102107.25;5034160;28;20464;-47
2022/07/06 05:04:35;;;;;;;2.40;2.30;;;;;;;14.21;98.59;102099.53;5035179;28;20820;-47
2022/07/06 05:07:03;;;;;;;4.80;3.00;;;;;;;14.37;96.09;102102.03;5034874;28;20520;-50
2022/07/06 05:09:31;;;;;;;3.93;2.83;;;;;;;14.56;94.13;102109.47;5034938;28;20782;-48
2022/07/06 05:11:59;;;;;;;2.40;2.20;;;;;;;14.76;91.60;102113.22;5034305;28;20467;-46
2022/07/06 05:14:26;;;;;;;4.33;2.20;;;;;;;15.02;92.01;102109.13;5034491;28;20435;-48
2022/07/06 05:16:54;;;;;;;2.57;2.37;;;;;;;15.37;92.67;102110.88;5034844;28;20475;-45
2022/07/06 05:19:21;;;;;;;2.40;2.20;;;;;;;15.90;92.96;102102.19;5034586;28;20440;-45
2022/07/06 05:21:50;;;;;;;3.47;2.63;;;;;;;16.77;91.54;102105.03;5034303;28;20476;-45
2022/07/06 05:24:18;;;;;;;2.27;2.10;;;;;;;17.01;86.67;102111.69;5034464;28;20439;-45
2022/07/06 05:26:46;;;;;;;3.63;3.10;;;;;;;17.35;86.40;102102.59;5034390;28;20479;-44
2022/07/06 05:29:14;;;;;;;2.63;2.43;;;;;;;17.56;82.78;102105.91;5042380;28;20459;-47
2022/07/06 05:31:42;;;;;;;4.10;2.50;;;;;;;17.57;80.99;102112.97;5048509;28;20835;-47
2022/07/06 05:34:09;;;;;;;3.50;2.40;;;;;;;17.54;79.95;102112.53;5045133;28;20431;-47
2022/07/06 05:36:37;;;;;;;2.77;2.57;;;;;;;17.44;78.91;102106.75;5054255;28;20450;-47
2022/07/06 05:39:06;;;;;;;3.57;2.80;;;;;;;17.39;79.84;102118.13;5054215;28;20808;-47
2022/07/06 05:41:33;;;;;;;7.07;3.40;;;;;;;17.33;77.74;102123.53;5053546;28;20437;-47
2022/07/06 05:44:01;;;;;;;4.37;2.13;;;;;;;17.30;78.46;102129.31;5053958;28;20438;-50
2022/07/06 05:46:29;;;;;;;2.73;2.53;;;;;;;17.25;79.14;102137.22;5053969;28;20475;-45
2022/07/06 05:51:41;;;;;;;3.07;2.63;;;;;;;17.14;78.91;102139.47;5053549;28;20461;-49
2022/07/06 05:54:10;;;;;;;2.43;2.27;;;;;;;17.05;77.61;102138.00;5053548;28;20446;-44
2022/07/06 05:56:38;;;;;;;3.70;3.20;;;;;;;17.05;78.41;102126.44;5053928;28;20447;-44
2022/07/06 05:59:05;;;;;;;3.27;2.70;;;;;;;16.97;77.11;102130.13;5053946;28;20423;-43
2022/07/06 06:01:33;;;;;;;2.60;2.40;;;;;;;16.99;77.54;102127.25;5053399;28;20437;-44
2022/07/06 06:04:01;;;;;;;4.47;2.60;;;;;;;17.01;77.26;102130.56;5053088;28;20431;-49
2022/07/06 06:06:31;;;;;;;2.90;2.73;;;;;;;17.02;77.17;102124.94;5053461;28;20562;-47
2022/07/06 06:08:58;;;;;;;6.90;3.13;;;;;;;17.09;77.22;102127.66;5053721;28;20427;-50
2022/07/06 06:11:27;;;;;;;3.77;2.50;;;;;;;17.08;76.61;102131.41;5053172;28;20435;-50
2022/07/06 06:13:55;;;;;;;3.33;2.20;;;;;;;17.15;76.96;102126.84;5053209;28;20446;-51
2022/07/06 06:16:22;;;;;;;3.10;2.90;;;;;;;17.44;79.23;102133.72;5053532;28;20454;-45
2022/07/06 06:18:50;;;;;;;4.57;2.80;;;;;;;17.61;76.17;102127.72;5052983;28;20538;-51
2022/07/06 06:21:18;;;;;;;2.63;2.40;;;;;;;17.71;75.46;102129.97;5053259;28;20526;-47
2022/07/06 06:23:45;;;;;;;3.70;2.27;;;;;;;17.75;74.18;102124.97;5052771;28;20450;-45
2022/07/06 06:26:13;;;;;;;2.60;2.37;;;;;;;17.80;73.64;102126.00;5053244;28;20487;-46
2022/07/06 06:28:42;;;;;;;2.80;2.60;;;;;;;17.91;74.59;102132.63;5053407;28;20438;-52
2022/07/06 06:31:10;;;;;;;5.33;2.57;;;;;;;17.89;73.85;102132.81;5053121;28;20431;-46
2022/07/06 06:33:38;;;;;;;2.60;2.40;;;;;;;18.04;74.52;102141.50;5041758;28;20547;-50
2022/07/06 06:36:06;;;;;;;2.80;2.60;;;;;;;18.10;73.03;102137.97;5052712;28;20446;-46
2022/07/06 06:38:33;;;;;;;3.93;2.60;;;;;;;18.34;73.09;102146.44;5053298;28;20435;-48
2022/07/06 06:41:01;;;;;;;3.60;2.77;;;;;;;18.65;73.81;102144.63;5053162;28;20792;-49
2022/07/06 06:43:29;;;;;;;3.10;2.90;;;;;;;18.84;71.52;102136.63;5052356;28;20459;-49
2022/07/06 06:45:58;;;;;;;3.33;2.70;;;;;;;18.83;69.16;102138.50;5051765;28;21012;-47
2022/07/06 06:48:26;;;;;;;4.27;2.70;;;;;;;18.69;69.20;102150.44;5052856;28;20427;-50
2022/07/06 06:50:54;;;;;;;3.60;2.70;;;;;;;18.59;69.84;102145.50;5038675;28;20467;-46
2022/07/06 06:53:22;;;;;;;4.50;2.17;;;;;;;18.62;71.12;102144.22;5040944;28;20455;-50
2022/07/06 06:55:49;;;;;;;2.90;2.70;;;;;;;18.71;70.58;102142.94;5037646;28;20488;-52
2022/07/06 06:58:17;;;;;;;2.80;2.60;;;;;;;18.78;70.36;102143.75;5049282;28;20435;-48
2022/07/06 07:00:45;;;;;;;3.83;2.40;;;;;;;18.91;70.52;102137.41;5043089;28;20827;-51
2022/07/06 07:03:14;;;;;;;3.10;2.40;;;;;;;18.98;69.42;102138.19;5030480;28;20849;-48
2022/07/06 07:05:42;;;;;;;4.33;2.13;;;;;;;19.20;70.12;102134.09;5031943;28;20456;-45
2022/07/06 07:08:09;;;;;;;6.77;2.97;;;;;;;19.04;67.76;102140.03;5025447;28;20573;-49
2022/07/06 07:10:37;;;;;;;2.33;2.10;;;;;;;18.80;67.69;102144.34;5032126;28;20462;-51
2022/07/06 07:13:05;;;;;;;2.30;2.20;;;;;;;18.49;69.19;102150.53;5031603;28;20471;-47
2022/07/06 07:15:32;;;;;;;4.37;2.23;;;;;;;18.24;69.97;102158.50;5033354;28;20438;-44
2022/07/06 07:18:00;;;;;;;2.90;2.57;;;;;;;17.92;70.80;102164.78;5040849;28;20441;-46
2022/07/06 07:20:30;;;;;;;4.23;2.30;;;;;;;17.67;72.65;102164.63;5045944;28;20469;-44
2022/07/06 07:22:58;;;;;;;11.17;2.80;;;;;;;17.49;74.90;102166.25;5051590;28;20461;-47
2022/07/06 07:25:26;;;;;;;3.20;2.30;;;;;;;17.36;75.97;102166.25;5052180;28;20947;-49
2022/07/06 07:27:54;;;;;;;2.70;2.30;;;;;;;17.40;77.98;102171.03;5052006;28;20474;-44
2022/07/06 07:30:21;;;;;;;2.67;2.50;;;;;;;17.53;79.07;102165.63;5051776;28;20921;-51
2022/07/06 07:32:49;;;;;;;4.20;2.60;;;;;;;17.72;79.70;102177.50;5047992;28;20455;-45
2022/07/06 07:35:16;;;;;;;3.70;2.50;;;;;;;18.12;79.37;102170.16;5044932;28;20450;-45
2022/07/06 07:37:45;;;;;;;4.10;2.30;;;;;;;18.49;78.33;102172.13;5052004;28;20450;-47
2022/07/06 07:40:13;;;;;;;4.47;2.70;;;;;;;18.72;76.29;102174.34;5051767;28;20435;-49
2022/07/06 07:42:41;;;;;;;2.77;2.50;;;;;;;19.01;76.11;102172.91;5051234;28;20467;-46
2022/07/06 07:45:09;;;;;;;5.73;2.77;;;;;;;19.13;73.68;102172.00;5051884;28;20430;-48
2022/07/06 07:47:37;;;;;;;2.90;2.70;;;;;;;19.17;71.82;102175.09;5051543;28;20482;-46
2022/07/06 07:50:05;;;;;;;3.00;2.30;;;;;;;19.12;72.43;102162.22;5051392;28;20431;-45
2022/07/06 07:52:33;;;;;;;2.50;2.40;;;;;;;18.90;71.74;102168.22;5050633;28;20462;-44
2022/07/06 07:55:02;;;;;;;5.90;2.97;;;;;;;18.57;71.73;102173.78;5051550;28;20430;-45
2022/07/06 07:57:49;;;;;;;5.17;2.50;;;;;;;18.22;73.88;102171.38;5051348;28;20959;-44
2022/07/06 08:00:17;;;;;;;2.83;2.50;;;;;;;18.04;75.78;102175.81;5051749;28;20423;-44
2022/07/06 08:02:50;;;;;;;3.40;2.47;;;;;;;18.19;77.81;102171.78;5050957;28;20550;-48
2022/07/06 08:05:18;;;;;;;2.40;2.30;;;;;;;18.42;77.24;102168.63;5051483;28;20436;-45
2022/07/06 08:07:46;;;;;;;4.80;2.60;;;;;;;18.58;75.11;102162.75;5033718;28;20475;-48
2022/07/06 08:10:15;;;;;;;3.00;2.23;;;;;;;18.92;74.63;102164.25;5031154;28;20433;-50
2022/07/06 08:12:42;;;;;;;2.40;2.30;;;;;;;19.52;76.36;102167.38;5030016;28;21007;-48
2022/07/06 08:15:13;;;;;;;2.63;2.43;;;;;;;20.08;70.69;102165.38;5031022;28;20475;-47
2022/07/06 08:17:40;;;;;;;3.70;3.20;;;;;;;20.58;68.93;102157.13;5031494;28;20452;-45
2022/07/06 08:20:09;;;;;;;2.77;2.57;;;;;;;20.74;70.10;102161.88;5031539;28;20530;-47
2022/07/06 08:22:37;;;;;;;2.77;2.23;;;;;;;20.50;68.12;102155.53;5031012;28;20499;-46
2022/07/06 08:25:06;;;;;;;2.83;2.60;;;;;;;20.22;67.60;102156.03;5031617;28;20514;-45
2022/07/06 08:27:35;;;;;;;2.70;2.60;;;;;;;19.96;69.15;102159.03;5030800;28;20995;-45
2022/07/06 08:30:04;;;;;;;3.30;2.33;;;;;;;19.66;70.18;102155.38;5031473;28;20427;-44
2022/07/06 08:32:31;;;;;;;3.57;2.83;;;;;;;19.38;69.92;102154.97;5037591;28;20451;-45
2022/07/06 08:35:19;;;;;;;2.73;2.57;;;;;;;18.98;70.83;102165.25;5038763;28;20427;-44
2022/07/06 08:37:47;;;;;;;3.10;2.80;;;;;;;18.59;71.78;102166.28;5051392;28;20545;-52
2022/07/06 08:40:14;;;;;;;2.60;2.40;;;;;;;18.30;72.68;102173.03;5051176;28;20925;-46
2022/07/06 08:42:44;;;;;;;4.43;2.73;;;;;;;17.98;74.25;102172.03;5050138;28;20816;-47
2022/07/06 08:45:13;;;;;;;4.00;2.67;;;;;;;17.73;76.43;102172.94;5051563;28;20435;-48
2022/07/06 08:47:42;;;;;;;6.10;2.70;;;;;;;17.58;78.26;102178.53;5050970;28;20479;-48
2022/07/06 08:50:11;;;;;;;4.87;3.07;;;;;;;17.63;80.47;102178.75;5051235;28;20437;-47
2022/07/06 08:52:39;;;;;;;4.93;2.87;;;;;;;17.72;81.22;102169.38;5050548;28;20473;-48
2022/07/06 08:55:09;;;;;;;3.93;2.97;;;;;;;17.77;81.51;102171.47;5051170;28;20796;-47
2022/07/06 08:57:39;;;;;;;3.07;2.77;;;;;;;17.80;80.86;102177.25;5050772;28;20454;-43
2022/07/06 09:00:10;;;;;;;4.53;2.67;;;;;;;17.84;81.39;102170.41;5051554;28;20427;-46
2022/07/06 09:02:38;;;;;;;5.90;2.80;;;;;;;17.91;82.61;102168.56;5050545;28;20524;-44
2022/07/06 09:05:09;;;;;;;7.23;2.67;;;;;;;18.23;82.64;102177.59;5051128;28;20476;-45
2022/07/06 09:07:37;;;;;;;4.27;2.80;;;;;;;18.51;81.97;102170.06;5050903;28;20481;-44
2022/07/06 09:10:24;;;;;;;3.50;2.20;;;;;;;19.09;83.05;102167.25;5053587;28;20434;-44
2022/07/06 09:12:52;;;;;;;2.20;2.10;;;;;;;19.64;79.17;102171.84;5053628;28;20466;-44
2022/07/06 09:15:25;;;;;;;4.00;2.30;;;;;;;19.94;74.57;102166.56;5054798;28;20796;-42
2022/07/06 09:17:57;;;;;;;3.37;2.10;;;;;;;19.97;74.66;102159.88;5054710;28;20435;-47
2022/07/06 09:20:25;;;;;;;2.73;2.53;;;;;;;19.95;72.24;102162.78;5054415;28;20534;-45
2022/07/06 09:22:57;;;;;;;2.20;2.00;;;;;;;19.81;70.99;102163.97;5053773;28;20466;-43
2022/07/06 09:25:26;;;;;;;4.70;2.97;;;;;;;19.75;71.84;102167.56;5053910;28;20427;-48
2022/07/06 09:27:55;;;;;;;2.50;2.00;;;;;;;19.74;72.07;102165.94;5054442;28;20839;-47
2022/07/06 09:30:24;;;;;;;3.10;2.50;;;;;;;19.66;71.87;102172.44;5054389;28;20437;-44
2022/07/06 09:32:53;;;;;;;2.60;2.13;;;;;;;19.60;72.38;102170.63;5049280;28;20462;-44
2022/07/06 09:35:23;;;;;;;7.63;2.63;;;;;;;19.62;72.71;102165.00;5045982;28;20901;-44
2022/07/06 09:38:01;;;;;;;2.70;2.13;;;;;;;19.58;73.25;102164.63;5054420;28;20879;-44
2022/07/06 09:40:30;;;;;;;2.43;2.17;;;;;;;19.38;69.71;102172.03;5043824;28;20446;-44
2022/07/06 09:43:15;;;;;;;3.23;2.40;;;;;;;19.39;70.16;102172.84;5030194;28;20459;-42
2022/07/06 09:45:46;;;;;;;3.43;1.97;;;;;;;19.50;70.28;102169.47;5032539;28;20462;-44
2022/07/06 09:48:18;;;;;;;5.37;2.47;;;;;;;19.60;69.75;102162.50;5034224;28;20475;-47
2022/07/06 09:50:47;;;;;;;5.03;2.73;;;;;;;19.67;67.73;102165.16;5034155;28;20537;-47
2022/07/06 09:53:16;;;;;;;5.47;2.50;;;;;;;19.90;67.48;102157.22;5032833;28;20467;-46
2022/07/06 09:55:44;;;;;;;4.70;2.27;;;;;;;20.24;67.29;102153.94;5033775;28;20539;-52
2022/07/06 09:58:12;;;;;;;3.43;2.43;;;;;;;20.40;66.11;102156.06;5034116;28;20462;-45
2022/07/06 10:00:40;;;;;;;2.43;2.23;;;;;;;20.71;64.81;102154.22;5033983;28;20430;-50
2022/07/06 10:03:09;;;;;;;3.83;3.07;;;;;;;20.91;63.29;102144.72;5033261;28;20463;-47
2022/07/06 10:05:38;;;;;;;4.03;3.23;;;;;;;21.09;62.41;102152.00;5033699;28;20947;-45
2022/07/06 10:08:09;;;;;;;3.90;3.50;;;;;;;20.85;60.19;102152.97;5033628;28;20475;-46
2022/07/06 10:10:38;;;;;;;3.73;3.07;;;;;;;20.64;59.09;102145.34;5033899;28;20428;-44
2022/07/06 10:13:06;;;;;;;4.20;3.17;;;;;;;20.38;61.95;102152.75;5032868;28;20478;-49
2022/07/06 10:15:36;;;;;;;4.53;3.33;;;;;;;20.27;62.65;102158.09;5032346;28;20501;-45
2022/07/06 10:18:06;;;;;;;3.73;3.40;;;;;;;19.79;60.59;102164.22;5033515;28;20439;-45
2022/07/06 10:20:38;;;;;;;2.87;2.67;;;;;;;19.09;64.29;102159.97;5033331;28;20454;-44
2022/07/06 10:23:07;;;;;;;5.70;3.30;;;;;;;19.06;64.80;102163.09;5032753;28;20463;-50
2022/07/06 10:25:35;;;;;;;6.40;3.50;;;;;;;19.20;65.38;102164.66;5033320;28;20989;-46
2022/07/06 10:28:13;;;;;;;5.20;3.90;;;;;;;19.29;63.58;102152.53;5033399;28;20778;-48
2022/07/06 10:30:42;;;;;;;3.60;3.40;;;;;;;19.41;60.87;102154.56;5032849;28;20435;-44
2022/07/06 10:33:11;;;;;;;5.87;3.43;;;;;;;19.65;60.89;102151.84;5040573;28;20817;-44
2022/07/06 10:35:42;;;;;;;3.83;3.53;;;;;;;19.77;59.65;102141.94;5049469;28;20431;-45
2022/07/06 10:38:10;;;;;;;3.80;3.60;;;;;;;19.91;55.87;102144.53;5053163;28;20948;-44
2022/07/06 10:43:33;;;;;;;3.83;2.70;;;;;;;20.22;53.04;102139.78;5051853;28;20470;-43
2022/07/06 10:46:06;;;;;;;3.50;3.30;;;;;;;20.40;55.67;102137.09;5052633;28;20827;-43
2022/07/06 10:48:38;;;;;;;3.23;2.97;;;;;;;19.84;54.55;102150.00;5053001;28;20883;-43
2022/07/06 10:51:08;;;;;;;3.53;3.27;;;;;;;19.94;57.05;102150.31;5052711;28;20430;-44
2022/07/06 10:53:39;;;;;;;7.17;2.67;;;;;;;20.70;57.35;102141.69;5052208;28;20465;-46
2022/07/06 10:56:08;;;;;;;2.80;2.70;;;;;;;21.19;54.98;102146.03;5052501;28;20453;-43
2022/07/06 10:58:57;;;;;;;5.20;3.50;;;;;;;21.47;54.40;102147.00;5052199;28;20925;-43
2022/07/06 11:01:29;;;;;;;2.73;2.60;;;;;;;21.48;53.94;102142.41;5047502;28;20772;-44
2022/07/06 11:04:06;;;;;;;4.77;3.03;;;;;;;22.00;54.97;102146.91;5052479;28;20463;-44
2022/07/06 11:06:37;;;;;;;5.60;3.20;;;;;;;21.82;54.33;102138.03;5052304;28;20975;-47
2022/07/06 11:09:06;;;;;;;4.83;3.30;;;;;;;21.93;54.38;102145.38;5052676;28;20493;-46
2022/07/06 11:11:45;;;;;;;4.97;3.10;;;;;;;21.94;51.56;102139.72;5052120;28;20431;-46
2022/07/06 11:14:15;;;;;;;3.23;2.93;;;;;;;21.82;50.35;102140.75;5051690;28;20907;-44
2022/07/06 11:17:02;;;;;;;2.93;2.27;;;;;;;21.65;50.80;102137.13;5058713;22;20534;-49
2022/07/06 11:19:31;;;;;;;2.90;2.70;;;;;;;21.12;54.28;102139.84;5032514;28;20424;-49
2022/07/06 11:22:07;;;;;;;3.00;2.77;;;;;;;21.21;51.54;102136.59;5032004;28;20463;-47
2022/07/06 11:24:36;;;;;;;2.63;2.53;;;;;;;21.83;52.16;102129.66;5032325;28;20915;-48
2022/07/06 11:27:06;;;;;;;6.50;3.83;;;;;;;21.41;51.11;102131.66;5032241;28;20455;-48
2022/07/06 11:29:37;;;;;;;3.10;2.93;;;;;;;21.95;50.90;102124.25;5031965;28;20467;-48
2022/07/06 11:32:05;;;;;;;3.23;3.03;;;;;;;21.67;49.51;102119.53;5033879;28;20463;-48
2022/07/06 11:34:36;;;;;;;2.70;2.60;;;;;;;21.98;49.83;102121.06;5043815;28;20510;-48
2022/07/06 11:37:07;;;;;;;2.70;2.60;;;;;;;21.66;49.33;102117.84;5052081;28;20461;-51
2022/07/06 11:39:36;;;;;;;2.43;2.33;;;;;;;21.81;45.33;102111.94;5051981;28;20418;-47
2022/07/06 11:42:05;;;;;;;2.90;2.70;;;;;;;21.67;47.77;102111.38;5051242;28;20541;-48